Time;durP1;ratioP1;P1;durP2;ratioP2;P2;SDS_P1;SDS_P2;PMS_P1;PMS_P2;Temp;Humidity;BMP_temperature;BMP_pressure;BME280_temperature;BME280_humidity;BME280_pressure;Samples;Min_cycle;Max_cycle;Signal;HPM_P1;HPM_P2
2023/05/23 00:09:54;;;;;;;4.00;3.35;;;;;;;19.57;69.95;101312.94;20811465;28;20042;-72
2023/05/23 00:19:55;;;;;;;4.28;3.38;;;;;;;19.56;69.82;101314.81;20817899;28;20565;-72
2023/05/23 00:29:57;;;;;;;5.05;3.80;;;;;;;19.55;69.77;101313.09;20817301;28;20046;-72
2023/05/23 00:39:59;;;;;;;6.05;4.28;;;;;;;19.55;70.14;101323.91;20821726;28;20047;-72
2023/05/23 00:50:01;;;;;;;4.95;3.47;;;;;;;19.54;70.07;101321.31;20888132;28;20060;-73
2023/05/23 01:00:03;;;;;;;4.80;3.72;;;;;;;19.52;69.85;101316.09;20911933;28;20134;-72
2023/05/23 01:10:05;;;;;;;3.50;2.95;;;;;;;19.51;69.92;101319.78;20895311;28;20079;-73
2023/05/23 01:20:12;;;;;;;4.03;3.20;;;;;;;19.51;70.10;101344.06;20894393;28;20049;-72
2023/05/23 01:30:18;;;;;;;4.03;3.35;;;;;;;19.50;69.99;101353.16;20893426;28;20459;-72
2023/05/23 01:40:21;;;;;;;3.50;2.85;;;;;;;19.49;70.02;101356.00;20900095;28;20052;-73
2023/05/23 01:50:23;;;;;;;5.35;3.08;;;;;;;19.47;70.18;101369.66;20887587;28;20041;-72
2023/05/23 02:00:25;;;;;;;3.58;3.08;;;;;;;19.47;70.10;101369.66;20908307;28;20053;-72
2023/05/23 02:10:26;;;;;;;3.20;2.80;;;;;;;19.46;69.95;101378.75;20906602;28;20048;-72
2023/05/23 02:20:28;;;;;;;3.45;3.00;;;;;;;19.45;69.83;101387.81;20907295;28;20118;-72
2023/05/23 02:30:30;;;;;;;4.57;3.20;;;;;;;19.44;69.77;101401.44;20906623;28;20448;-72
2023/05/23 02:40:32;;;;;;;3.50;3.10;;;;;;;19.38;69.71;101409.09;20894579;28;20053;-72
2023/05/23 02:50:35;;;;;;;3.65;3.03;;;;;;;19.41;70.00;101424.16;20902782;28;20076;-72
2023/05/23 03:00:36;;;;;;;4.25;2.70;;;;;;;19.40;69.88;101433.25;20902530;28;20057;-72
2023/05/23 03:10:38;;;;;;;3.72;2.90;;;;;;;19.39;69.45;101431.53;20903615;28;20049;-72
2023/05/23 03:20:40;;;;;;;3.17;2.72;;;;;;;19.38;69.38;101446.91;20903309;28;20041;-72
2023/05/23 03:30:41;;;;;;;4.53;2.70;;;;;;;19.39;69.29;101463.94;20883716;28;20048;-72
2023/05/23 03:40:43;;;;;;;4.75;3.40;;;;;;;19.37;69.24;101465.91;20888023;28;20059;-72
2023/05/23 03:50:45;;;;;;;4.60;2.75;;;;;;;19.35;68.86;101470.59;20899630;28;20124;-72
2023/05/23 04:00:47;;;;;;;3.95;2.70;;;;;;;19.33;68.91;101477.97;20883592;28;20072;-72
2023/05/23 04:10:50;;;;;;;4.10;2.65;;;;;;;19.33;69.10;101480.66;20796209;28;20147;-75
2023/05/23 04:20:53;;;;;;;4.10;2.55;;;;;;;19.33;69.22;101496.88;20820008;28;20045;-74
2023/05/23 04:30:55;;;;;;;3.40;2.40;;;;;;;19.35;69.42;101511.09;20809514;28;21886;-74
2023/05/23 04:41:00;;;;;;;3.65;2.65;;;;;;;19.35;69.53;101528.16;20798501;28;20101;-72
2023/05/23 04:51:20;;;;;;;3.83;2.30;;;;;;;19.37;69.80;101545.09;20779019;28;20045;-75
2023/05/23 05:01:30;;;;;;;3.13;2.20;;;;;;;19.39;69.74;101550.34;20798043;28;20053;-71
2023/05/23 05:11:32;;;;;;;4.88;2.08;;;;;;;19.45;69.92;101574.16;20820551;28;20061;-68
2023/05/23 05:21:33;;;;;;;3.83;2.30;;;;;;;19.47;70.67;101579.41;20797768;28;20045;-71
2023/05/23 05:31:36;;;;;;;2.42;1.65;;;;;;;19.49;70.98;101594.50;20783691;28;20792;-70
2023/05/23 05:41:39;;;;;;;3.35;2.38;;;;;;;19.48;71.35;101608.97;20764398;28;20049;-70
2023/05/23 05:51:41;;;;;;;8.32;2.22;;;;;;;19.48;71.25;101625.19;20797335;28;20045;-70
2023/05/23 06:01:43;;;;;;;3.35;2.00;;;;;;;19.48;70.86;101645.91;20784817;28;20049;-70
2023/05/23 06:11:46;;;;;;;5.22;2.30;;;;;;;19.47;70.46;101658.59;20785929;28;20052;-70
2023/05/23 06:21:49;;;;;;;3.72;1.90;;;;;;;19.49;69.89;101670.13;20802798;28;20513;-65
2023/05/23 06:31:51;;;;;;;2.75;1.70;;;;;;;19.52;70.07;101679.78;20776436;28;20052;-65
2023/05/23 06:41:53;;;;;;;2.38;1.67;;;;;;;19.55;69.81;101696.59;20773629;28;20046;-65
2023/05/23 06:51:54;;;;;;;2.55;1.75;;;;;;;19.58;69.96;101705.44;20774205;28;20425;-65
2023/05/23 07:01:56;;;;;;;3.03;1.88;;;;;;;19.61;69.67;101718.69;20792303;28;20041;-66
2023/05/23 07:11:59;;;;;;;2.60;1.67;;;;;;;19.63;69.48;101728.34;20741513;28;20414;-66
2023/05/23 07:22:00;;;;;;;4.07;1.75;;;;;;;19.62;68.40;101744.69;20770416;28;20793;-66
2023/05/23 07:32:04;;;;;;;2.33;1.63;;;;;;;19.61;68.23;101751.94;20792798;28;20069;-66
2023/05/23 07:42:06;;;;;;;2.80;1.73;;;;;;;19.67;67.80;101758.69;20797160;28;20049;-66
2023/05/23 07:52:08;;;;;;;2.10;1.60;;;;;;;19.69;67.23;101767.50;20786987;28;20863;-66
2023/05/23 08:02:10;;;;;;;2.65;1.60;;;;;;;19.71;66.75;101773.66;20748710;28;20053;-66
2023/05/23 08:12:14;;;;;;;3.83;1.40;;;;;;;19.80;66.73;101780.97;20808108;28;20136;-66
2023/05/23 08:22:17;;;;;;;3.25;1.55;;;;;;;19.94;66.10;101792.53;20767834;28;20049;-66
2023/05/23 08:32:18;;;;;;;4.18;1.83;;;;;;;20.05;65.64;101797.03;20783813;28;20077;-67
2023/05/23 08:42:20;;;;;;;2.97;1.60;;;;;;;20.17;65.22;101806.81;20799229;28;20061;-66
2023/05/23 08:52:24;;;;;;;2.40;1.50;;;;;;;20.28;64.98;101816.72;20799694;28;20524;-66
2023/05/23 09:02:28;;;;;;;3.13;1.48;;;;;;;20.45;64.51;101811.72;20772316;28;20128;-66
2023/05/23 09:12:42;;;;;;;2.85;1.40;;;;;;;20.62;63.75;101824.66;20802204;28;20433;-66
2023/05/23 09:22:47;;;;;;;2.38;1.50;;;;;;;20.70;63.09;101830.25;20796542;28;20136;-66
2023/05/23 09:32:59;;;;;;;;;;;;;;;20.74;62.48;101828.16;20781527;28;20133;-66
2023/05/23 09:43:06;;;;;;;4.05;1.73;;;;;;;20.72;61.99;101847.22;20803589;28;19921;-72
2023/05/23 09:53:09;;;;;;;4.03;1.70;;;;;;;20.72;61.73;101847.22;20793480;28;20060;-66
2023/05/23 10:03:12;;;;;;;3.20;1.58;;;;;;;20.70;61.92;101849.19;20793300;28;20041;-66
2023/05/23 10:13:14;;;;;;;4.32;1.45;;;;;;;20.65;62.11;101856.84;20793729;28;20136;-66
2023/05/23 10:23:17;;;;;;;3.63;1.73;;;;;;;20.58;61.90;101861.06;20776048;28;20048;-66
2023/05/23 10:33:18;;;;;;;2.30;1.35;;;;;;;20.68;61.92;101875.53;20778000;28;20045;-66
2023/05/23 10:43:28;;;;;;;2.45;1.40;;;;;;;20.72;61.63;101885.09;20794752;28;20049;-66
2023/05/23 10:53:31;;;;;;;3.65;1.70;;;;;;;20.72;61.51;101885.09;20779432;28;20071;-66
2023/05/23 11:03:35;;;;;;;2.00;1.20;;;;;;;20.72;61.22;101890.50;20791007;28;20053;-66
2023/05/23 11:13:55;;;;;;;3.70;1.48;;;;;;;20.70;60.74;101897.91;20788569;28;20057;-67
2023/05/23 11:23:57;;;;;;;2.70;1.30;;;;;;;20.70;60.59;101903.31;20795273;28;20513;-66
2023/05/23 11:33:59;;;;;;;4.45;1.30;;;;;;;20.66;60.70;101914.56;20795185;28;20049;-66
2023/05/23 11:44:10;;;;;;;3.85;1.60;;;;;;;20.61;60.94;101908.66;20802561;28;20052;-66
2023/05/23 11:54:11;;;;;;;2.50;1.25;;;;;;;20.58;60.80;101905.25;20790043;28;20480;-66
2023/05/23 12:04:13;;;;;;;2.85;1.42;;;;;;;20.57;60.46;101927.00;20817640;28;20518;-66
2023/05/23 12:14:16;;;;;;;2.83;1.15;;;;;;;20.51;60.20;101924.81;20818035;28;20045;-67
2023/05/23 12:24:20;;;;;;;2.40;1.15;;;;;;;20.52;60.05;101929.22;20825680;28;20053;-67
2023/05/23 12:34:21;;;;;;;2.35;1.15;;;;;;;20.48;59.56;101941.31;20896549;28;20566;-67
2023/05/23 12:44:28;;;;;;;2.75;1.30;;;;;;;20.45;59.54;101936.16;20914956;28;20559;-66
2023/05/23 12:54:30;;;;;;;1.98;1.15;;;;;;;20.41;59.15;101941.81;20914983;28;20076;-66
2023/05/23 13:04:31;;;;;;;2.72;1.35;;;;;;;20.37;58.92;101943.06;20914221;28;20053;-66
2023/05/23 13:14:33;;;;;;;1.30;0.85;;;;;;;20.36;58.98;101943.16;20911996;28;20854;-66
2023/05/23 13:24:39;;;;;;;2.42;1.25;;;;;;;20.39;58.55;101940.22;20898477;28;20485;-66
2023/05/23 13:34:40;;;;;;;2.70;1.25;;;;;;;20.40;58.28;101950.03;20911135;28;20102;-67
2023/05/23 13:44:42;;;;;;;2.08;1.10;;;;;;;20.37;58.14;101959.28;20910789;28;20128;-66
2023/05/23 13:54:45;;;;;;;2.47;1.13;;;;;;;20.35;57.86;101952.28;20909357;28;20135;-66
2023/05/23 14:04:47;;;;;;;2.85;1.17;;;;;;;20.33;57.75;101947.00;20909173;28;20102;-66
2023/05/23 14:14:49;;;;;;;2.58;1.20;;;;;;;20.31;57.61;101951.66;20908115;28;20060;-66
2023/05/23 14:24:51;;;;;;;3.10;1.40;;;;;;;20.26;57.60;101956.59;20891040;28;20562;-66
2023/05/23 14:34:54;;;;;;;3.17;1.25;;;;;;;20.23;57.23;101957.72;20906172;28;20045;-66
2023/05/23 14:44:55;;;;;;;2.25;1.00;;;;;;;20.20;57.41;101966.09;20905715;28;20060;-66
2023/05/23 14:54:57;;;;;;;1.73;1.17;;;;;;;20.18;57.13;101976.16;20905357;28;20037;-66
2023/05/23 15:04:59;;;;;;;3.00;1.20;;;;;;;20.16;56.90;101980.84;20902967;28;20064;-66
2023/05/23 15:15:03;;;;;;;3.00;1.00;;;;;;;20.16;56.70;101982.66;20903398;28;20053;-66
2023/05/23 15:25:06;;;;;;;2.43;1.00;;;;;;;20.16;56.55;101982.66;20891357;28;20053;-66
2023/05/23 15:35:07;;;;;;;1.35;0.80;;;;;;;20.14;56.39;101991.75;20901451;28;20045;-66
2023/05/23 15:45:09;;;;;;;2.72;1.17;;;;;;;20.13;55.96;101990.03;20883472;28;20098;-66
2023/05/23 15:55:11;;;;;;;1.75;1.00;;;;;;;20.13;55.81;101994.59;20901032;28;20052;-66
2023/05/23 16:05:13;;;;;;;2.83;1.00;;;;;;;20.11;55.59;102001.97;20900146;28;20056;-66
2023/05/23 16:15:14;;;;;;;2.38;1.20;;;;;;;20.09;55.23;102010.19;20912595;28;20568;-66
2023/05/23 16:25:16;;;;;;;1.48;0.95;;;;;;;20.04;55.20;102015.13;20902322;28;20120;-66
2023/05/23 16:35:18;;;;;;;2.95;1.38;;;;;;;20.03;55.08;102007.13;20915643;28;20053;-66
2023/05/23 16:45:20;;;;;;;3.10;1.20;;;;;;;20.00;54.93;101998.28;20913458;28;20120;-66
2023/05/23 16:55:21;;;;;;;3.42;1.27;;;;;;;19.97;54.85;102001.22;20915364;28;20170;-66
2023/05/23 17:05:24;;;;;;;2.22;0.88;;;;;;;19.95;54.56;102005.91;20913919;28;20045;-66
2023/05/23 17:15:25;;;;;;;2.58;1.10;;;;;;;19.93;54.46;102010.56;20912651;28;20049;-66
2023/05/23 17:25:27;;;;;;;3.20;1.10;;;;;;;19.91;54.02;102006.28;20900859;28;20076;-66
2023/05/23 17:35:28;;;;;;;1.63;0.90;;;;;;;19.89;54.16;102016.34;20910612;28;20424;-66
2023/05/23 17:45:30;;;;;;;2.67;1.33;;;;;;;19.84;54.00;102028.34;20909446;28;20048;-66
2023/05/23 17:55:32;;;;;;;2.97;1.00;;;;;;;19.80;53.90;102032.28;20907688;28;20135;-66
2023/05/23 18:05:33;;;;;;;2.03;1.10;;;;;;;19.77;53.84;102034.38;20908887;28;20363;-66
2023/05/23 18:15:35;;;;;;;2.97;0.95;;;;;;;19.73;53.79;102039.16;20902309;28;20048;-66
2023/05/23 18:25:36;;;;;;;1.80;0.90;;;;;;;19.70;53.89;102044.78;20898071;28;20111;-66
2023/05/23 18:35:38;;;;;;;2.78;1.10;;;;;;;19.68;54.16;102046.75;20905359;28;20053;-66
2023/05/23 18:45:40;;;;;;;1.70;0.98;;;;;;;19.65;54.38;102058.66;20905076;28;20509;-66
2023/05/23 18:55:42;;;;;;;6.65;1.50;;;;;;;19.64;54.34;102053.38;20837105;28;20100;-66
2023/05/23 19:05:44;;;;;;;4.78;1.20;;;;;;;19.60;55.35;102066.25;20801981;28;20099;-67
2023/05/23 19:15:46;;;;;;;2.58;1.10;;;;;;;19.58;56.01;102067.38;20801829;28;20051;-67
2023/05/23 19:25:47;;;;;;;2.63;1.00;;;;;;;19.56;56.05;102084.56;20798131;28;20124;-67
2023/05/23 19:35:50;;;;;;;2.65;1.30;;;;;;;19.53;56.02;102087.50;20794376;28;20060;-67
2023/05/23 19:45:52;;;;;;;2.92;1.10;;;;;;;19.51;55.75;102096.69;20802139;28;20067;-67
2023/05/23 19:55:53;;;;;;;3.38;1.17;;;;;;;19.48;55.61;102108.59;20800815;28;20056;-67
2023/05/23 20:05:55;;;;;;;2.78;1.08;;;;;;;19.48;55.36;102103.19;20805245;28;20421;-67
2023/05/23 20:15:57;;;;;;;2.97;1.10;;;;;;;19.46;55.24;102105.16;20843999;28;20413;-67
2023/05/23 20:25:59;;;;;;;3.55;1.40;;;;;;;19.44;55.24;102098.97;20900261;28;20053;-67
2023/05/23 20:36:01;;;;;;;2.30;0.98;;;;;;;19.42;54.94;102100.94;20899396;28;20064;-67
2023/05/23 20:46:07;;;;;;;3.40;1.20;;;;;;;19.40;55.07;102092.97;20898928;28;20063;-67
2023/05/23 20:56:09;;;;;;;2.13;0.80;;;;;;;19.37;54.78;102098.59;20902976;28;20124;-67
2023/05/23 21:06:11;;;;;;;2.03;0.80;;;;;;;19.36;54.59;102096.00;20914425;28;20139;-67
2023/05/23 21:16:13;;;;;;;1.27;0.80;;;;;;;19.33;54.63;102088.16;20898082;28;20102;-67
2023/05/23 21:26:15;;;;;;;2.78;1.13;;;;;;;19.32;54.37;102094.53;20895212;28;20583;-66
2023/05/23 21:36:16;;;;;;;3.10;1.33;;;;;;;19.27;54.38;102090.34;20911793;28;20049;-66
2023/05/23 21:46:18;;;;;;;2.42;0.90;;;;;;;19.23;54.26;102090.72;20909621;28;20140;-67
2023/05/23 21:56:20;;;;;;;1.83;0.95;;;;;;;19.22;54.08;102089.84;20910771;28;20541;-67
2023/05/23 22:06:22;;;;;;;2.08;0.93;;;;;;;19.19;54.06;102081.09;20909295;28;20463;-66
2023/05/23 22:16:24;;;;;;;2.88;1.20;;;;;;;19.18;53.92;102084.75;20896848;28;20782;-66
2023/05/23 22:26:26;;;;;;;2.80;1.35;;;;;;;19.15;53.97;102082.31;20908187;28;20060;-66
2023/05/23 22:36:28;;;;;;;4.25;1.92;;;;;;;19.11;53.79;102087.94;20907127;28;20067;-66
2023/05/23 22:46:30;;;;;;;3.38;1.55;;;;;;;19.10;53.84;102082.66;20906481;28;20081;-66
2023/05/23 22:56:32;;;;;;;2.85;1.13;;;;;;;19.09;53.66;102083.66;20822062;28;20045;-66
2023/05/23 23:06:34;;;;;;;3.78;1.10;;;;;;;19.07;53.53;102081.03;20814203;28;20727;-66
2023/05/23 23:16:36;;;;;;;1.52;0.95;;;;;;;19.05;53.57;102076.75;20809460;28;20486;-66
2023/05/23 23:26:38;;;;;;;2.72;1.52;;;;;;;19.03;53.61;102068.75;20813166;28;20053;-66
2023/05/23 23:36:40;;;;;;;2.22;1.17;;;;;;;19.01;53.54;102067.16;20803911;28;20052;-66
2023/05/23 23:46:41;;;;;;;2.78;1.33;;;;;;;19.01;53.51;102059.06;20806096;28;20124;-66
2023/05/23 23:56:43;;;;;;;1.75;1.10;;;;;;;18.97;53.43;102059.28;20808957;28;20079;-66
